Tiempo atmosférico en la estación meteorológica de Bunyola, Sierra de Alfabia, Illes Balears (1030 m.)

Fecha
DESCASC
Temp. máxima en grados centígrados (hora)
DESCASC
Temp. mínima en grados centígrados (hora)
DESCASC
Temp. media en grados centígrados
DESCASC
Racha de viento máxima en m/sg (hora)
DESCASC
Velocidad máxima media en intervalos de 10 minutos(hora)
DESCASC
Precipitaciones diarias en mm
DESCASC
Precipitaciones de 00:00 a 06:00 en mm
DESCASC
Precipitaciones de 06:00 a 12:00 en mm
DESCASC
Precipitaciones de 12:00 a 18:00 en mm
DESCASC
Precipitaciones de 18:00 a 24:00 en mm
DESCASC

Gráficas

Temp. máximas Temp. mínimas Temp. medias Precipitaciones Rachas de viento máximas Velocidades máximas media en intervalos de 10 minutos

Datos horarios

Fecha y hora oficial Temperatura (ºC) Velocidad del viento (km/h) Dirección del viento Racha (km/h) Dirección de racha Precipitación (mm) Presión (hPa) Tendencia (hPa) Humedad (%)
2017-11-23 23:00:00 13.5 18 Oeste 32 Oeste 0 -- -- 26
2017-11-23 22:00:00 13.2 18 Oeste 28 Oeste 0 -- -- 28
2017-11-23 21:00:00 13.1 15 Oeste 23 Oeste 0 -- -- 26
2017-11-23 20:00:00 13.8 11 Oeste 18 Oeste 0 -- -- 24
2017-11-23 19:00:00 13.7 6 Oeste 15 Noroeste 0 -- -- 27
2017-11-23 18:00:00 12.9 11 Noroeste 19 Noroeste 0 -- -- 27
2017-11-23 17:00:00 13.8 9 Noroeste 17 Noroeste 0 -- -- 28
2017-11-23 16:00:00 14.3 8 Oeste 16 Oeste 0 -- -- 48
2017-11-23 15:00:00 14.3 6 Sudoeste 17 Norte 0 -- -- 64
2017-11-23 14:00:00 15.5 5 Oeste 16 Sur 0 -- -- 54
2017-11-23 13:00:00 15.1 8 Sur 13 Sur 0 -- -- 54
2017-11-23 12:00:00 15.5 4 Oeste 14 Sudoeste 0 -- -- 32
2017-11-23 11:00:00 15.6 10 Noroeste 21 Oeste 0 -- -- 25
2017-11-23 10:00:00 14.1 9 Oeste 17 Oeste 0 -- -- 22
2017-11-23 09:00:00 13.5 6 Sudoeste 9 Sudoeste 0 -- -- 22
2017-11-23 08:00:00 9.5 3 Noroeste 21 Noroeste 0 -- -- 23
2017-11-23 07:00:00 9 10 Noroeste 18 Noroeste 0 -- -- 21
2017-11-23 06:00:00 10.1 8 Noroeste 12 Noroeste 0 -- -- 17
2017-11-23 05:00:00 10.1 4 Oeste 15 Oeste 0 -- -- 20
2017-11-23 04:00:00 9.5 8 Oeste 20 Sudoeste 0 -- -- 25
2017-11-23 03:00:00 8.6 14 Sudoeste 21 Sudoeste 0 -- -- 36
2017-11-23 02:00:00 8.9 15 Sudoeste 23 Sudoeste 0 -- -- 35
2017-11-23 01:00:00 9 17 Sur 23 Sur 0 -- -- 36
2017-11-23 00:00:00 7.3 19 Sur 59 Sur 0 -- -- 75
2017-11-22 23:00:00 8.8 20 Sur 32 Sur 0 -- -- 27
2017-11-22 22:00:00 8.5 23 Sur 26 Sur 0 -- -- 29
2017-11-22 21:00:00 8.5 18 Sur 25 Sur 0 -- -- 29
2017-11-22 20:00:00 8.6 18 Sur 26 Sur 0 -- -- 29
2017-11-22 19:00:00 8 20 Sur 26 Sur 0 -- -- 44
2017-11-22 18:00:00 8 20 Sur 28 Sur 0 -- -- 87
2017-11-22 17:00:00 8.4 23 Sur 36 Sur 0 -- -- 85
2017-11-22 16:00:00 9 28 Sur 40 Sur 0 -- -- 74
2017-11-22 15:00:00 10.8 18 Sur 30 Sur 0 -- -- 63
2017-11-22 14:00:00 10.7 21 Sur 32 Sur 0 -- -- 66
2017-11-22 13:00:00 10.5 23 Sur 30 Sur 0 -- -- 62
2017-11-22 12:00:00 10.6 20 Sur 32 Sur 0 -- -- 69
2017-11-22 11:00:00 9.9 23 Sur 30 Sur 0 -- -- 78
2017-11-22 10:00:00 8.4 21 Sur 28 Sur 0 -- -- 82
2017-11-22 09:00:00 8 16 Sur 27 Sur 0 -- -- 77
2017-11-22 08:00:00 6.5 11 Sur 24 Sur 0 -- -- 87
2017-11-22 07:00:00 7.2 13 Sur 19 Sur 0 -- -- 89
2017-11-22 06:00:00 7 9 Sudoeste 25 Oeste 0 -- -- 85
2017-11-22 05:00:00 8.8 12 Oeste 24 Oeste 0 -- -- 54
2017-11-22 04:00:00 7.4 14 Sudoeste 23 Sudoeste 0 -- -- 71
2017-11-22 03:00:00 8.9 17 Sudoeste 25 Sudoeste 0 -- -- 38
2017-11-22 02:00:00 7.6 15 Sur 26 Sudoeste 0 -- -- 88
2017-11-22 01:00:00 7.7 13 Sur 22 Sur 0 -- -- 87
2017-11-22 00:00:00 7.8 15 Sur 22 Sudoeste 0 -- -- 81
2017-11-21 23:00:00 8 17 Sur 22 Sudoeste 0 -- -- 88
2017-11-21 22:00:00 8.1 12 Sudoeste 14 Sudoeste 0 -- -- 72
2017-11-21 21:00:00 11.1 0 Calma 13 Sudoeste 0 -- -- 25
2017-11-21 20:00:00 9.7 8 Sudoeste 13 Sudoeste 0 -- -- 42
2017-11-21 19:00:00 7.1 5 Sudoeste 17 Sur 0 -- -- 87
2017-11-21 18:00:00 9 10 Sur 18 Sur 0 -- -- 88
2017-11-21 17:00:00 9.6 8 Sur 17 Sur 0 -- -- 87
2017-11-21 16:00:00 10.9 9 Sur 15 Sur 0 -- -- 86
2017-11-21 15:00:00 12.4 5 Sudoeste 12 Sudoeste 0 -- -- 74
2017-11-21 14:00:00 12.8 5 Oeste 13 Oeste 0 -- -- 74
2017-11-21 13:00:00 13.3 5 Oeste 14 Oeste 0 -- -- 64
2017-11-21 12:00:00 13 5 Sudoeste 13 Sudoeste 0 -- -- 68
2017-11-21 11:00:00 13.2 4 Sudoeste 10 Oeste 0 -- -- 60
2017-11-21 10:00:00 10.6 0 Calma 13 Norte 0 -- -- 51
2017-11-21 09:00:00 9.8 10 Noroeste 15 Noroeste 0 -- -- 35
2017-11-21 08:00:00 9.2 9 Noroeste 14 Norte 0 -- -- 31
2017-11-21 07:00:00 9 8 Noroeste 11 Norte 0 -- -- 33
2017-11-21 06:00:00 9.4 3 Norte 5 Norte 0 -- -- 28
2017-11-21 05:00:00 8.6 0 Calma 8 Sudeste 0 -- -- 36
2017-11-21 04:00:00 6.7 6 Este 14 Nordeste 0 -- -- 86
2017-11-21 03:00:00 7.3 8 Nordeste 14 Nordeste 0 -- -- 86
2017-11-21 02:00:00 7.3 13 Nordeste 17 Nordeste 0 -- -- 88
2017-11-21 01:00:00 7.3 9 Nordeste 18 Norte 0 -- -- 87
2017-11-21 00:00:00 7.9 11 Norte 18 Noroeste 0 -- -- 65
2017-11-20 23:00:00 7.6 12 Noroeste 18 Noroeste 0 -- -- 72
2017-11-20 22:00:00 6.9 12 Noroeste 20 Noroeste 0 -- -- 81
2017-11-20 21:00:00 8 10 Oeste 13 Oeste 0 -- -- 62
2017-11-20 20:00:00 7.7 5 Sudoeste 12 Sur 0 -- -- 73
2017-11-20 19:00:00 7.8 7 Sur 11 Sur 0 -- -- 79
2017-11-20 18:00:00 8.3 5 Sur 8 Sur 0 -- -- 78
2017-11-20 17:00:00 9.4 0 Calma 5 Norte 0 -- -- 63
2017-11-20 16:00:00 10.4 4 Noroeste 11 Sudoeste 0 -- -- 59
2017-11-20 15:00:00 10.7 4 Sudoeste 21 Sur 0 -- -- 64
2017-11-20 14:00:00 10.5 3 Nordeste 8 Norte 0 -- -- 48
2017-11-20 13:00:00 10.8 3 Norte 10 Noroeste 0 -- -- 40
2017-11-20 12:00:00 11.1 0 Calma 17 Noroeste 0 -- -- 34
2017-11-20 11:00:00 9.4 11 Noroeste 27 Norte 0 -- -- 32
2017-11-20 10:00:00 8.4 23 Noroeste 31 Norte 0 -- -- 32
2017-11-20 09:00:00 7.7 23 Norte 27 Norte 0 -- -- 39
2017-11-20 08:00:00 6.1 20 Norte 23 Norte 0 -- -- 51
2017-11-20 07:00:00 6.5 11 Noroeste 19 Noroeste 0 -- -- 35
2017-11-20 06:00:00 5.8 19 Noroeste 22 Noroeste 0 -- -- 60
2017-11-20 05:00:00 6.7 7 Noroeste 16 Sudoeste 0 -- -- 50
2017-11-20 04:00:00 6.7 9 Noroeste 12 Sudoeste 0 -- -- 56
2017-11-20 03:00:00 7.2 6 Sudoeste 9 Sudoeste 0 -- -- 57
2017-11-20 02:00:00 7.2 5 Sur 12 Sur 0 -- -- 64
2017-11-20 01:00:00 7.1 11 Sur 13 Sur 0 -- -- 64
2017-11-20 00:00:00 7 0 Calma 5 Sur 0 -- -- 66
2017-11-19 23:00:00 7.2 0 Calma 5 Norte 0 -- -- 54
2017-11-19 22:00:00 7.7 3 Sudoeste 9 Oeste 0 -- -- 64
2017-11-19 21:00:00 8 6 Oeste 12 Oeste 0 -- -- 49
2017-11-19 20:00:00 7.7 5 Sur 8 Sudeste 0 -- -- 69
2017-11-19 19:00:00 7.4 8 Sudeste 14 Sudeste 0 -- -- 81
2017-11-19 18:00:00 8 12 Sudeste 17 Sudeste 0 -- -- 71
2017-11-19 17:00:00 9.4 8 Sudeste 12 Sudeste 0 -- -- 52
2017-11-19 16:00:00 8.7 5 Nordeste 14 Norte 0 -- -- 49
2017-11-19 15:00:00 8.2 10 Norte 20 Norte 0 -- -- 74
2017-11-19 14:00:00 8.1 16 Norte 21 Norte 0 -- -- 72
2017-11-19 13:00:00 8.4 14 Norte 25 Nordeste 0 -- -- 81
2017-11-19 12:00:00 8.2 17 Norte 24 Noroeste 0 -- -- 82
2017-11-19 11:00:00 8.9 13 Noroeste 24 Norte 0 -- -- 73
2017-11-19 10:00:00 8.4 15 Noroeste 24 Norte 0 -- -- 78
2017-11-19 09:00:00 7.1 13 Noroeste 24 Noroeste 0 -- -- 85
2017-11-19 08:00:00 6.7 12 Noroeste 20 Noroeste 0.1 -- -- 78
2017-11-19 07:00:00 6.5 20 Noroeste 28 Noroeste 0 -- -- 89
2017-11-19 06:00:00 6.8 18 Noroeste 26 Norte 0 -- -- 89
2017-11-19 05:00:00 7.2 12 Noroeste 31 Noroeste 0 -- -- 89
2017-11-19 04:00:00 8.1 19 Noroeste 27 Noroeste 0 -- -- 89
2017-11-19 03:00:00 7.7 14 Noroeste 24 Noroeste 0.1 -- -- 89
2017-11-19 02:00:00 7.2 17 Noroeste 27 Noroeste 0 -- -- 89
2017-11-19 01:00:00 7.4 21 Noroeste 27 Noroeste 0 -- -- 89
2017-11-19 00:00:00 6.9 17 Noroeste 29 Noroeste 0 -- -- 88
2017-11-18 23:00:00 6.7 19 Noroeste 32 Noroeste 0 -- -- 87
2017-11-18 22:00:00 6.7 16 Noroeste 27 Noroeste 0 -- -- 82
2017-11-18 21:00:00 6.6 16 Noroeste 23 Noroeste 0 -- -- 83
2017-11-18 20:00:00 6.9 9 Noroeste 19 Noroeste 0 -- -- 86
2017-11-18 19:00:00 7.5 8 Oeste 17 Oeste 0 -- -- 82
2017-11-18 18:00:00 7.9 5 Sudoeste 13 Sudoeste 0 -- -- 85
2017-11-18 17:00:00 8.6 8 Sudoeste 17 Sur 0 -- -- 74
2017-11-18 16:00:00 9.8 11 Sur 19 Sudoeste 0 -- -- 56
2017-11-18 15:00:00 11.6 5 Sudoeste 15 Sudoeste 0 -- -- 51
2017-11-18 14:00:00 12.7 7 Sudoeste 17 Sur 0 -- -- 47
2017-11-18 13:00:00 12.8 3 Oeste 14 Sudoeste 0 -- -- 47
2017-11-18 12:00:00 12.8 3 Oeste 14 Sur 0 -- -- 44
2017-11-18 11:00:00 11.7 8 Sur 14 Sur 0 -- -- 43
2017-11-18 10:00:00 10.8 2 Nordeste 14 Norte 0 -- -- 38
2017-11-18 09:00:00 8.3 13 Norte 20 Norte 0 -- -- 42
2017-11-18 08:00:00 7.9 19 Norte 25 Noroeste 0 -- -- 44
2017-11-18 07:00:00 7.8 20 Norte 28 Norte 0 -- -- 43
2017-11-18 06:00:00 7.4 24 Noroeste 33 Noroeste 0 -- -- 42
2017-11-18 05:00:00 7 24 Noroeste 28 Noroeste 0 -- -- 47
2017-11-18 04:00:00 7.2 20 Noroeste 24 Noroeste 0 -- -- 46
2017-11-18 03:00:00 6.9 19 Noroeste 23 Noroeste 0 -- -- 49
2017-11-18 02:00:00 7.1 19 Noroeste 26 Noroeste 0 -- -- 44
2017-11-18 01:00:00 7.4 14 Noroeste 17 Noroeste 0 -- -- 38
2017-11-18 00:00:00 8.7 12 Norte 17 Norte 0 -- -- 33
2017-11-17 23:00:00 9.1 14 Norte 22 Nordeste 0 -- -- 33
2017-11-17 22:00:00 8.9 13 Nordeste 25 Nordeste 0 -- -- 35
2017-11-17 21:00:00 8.5 8 Nordeste 20 Nordeste 0 -- -- 39
2017-11-17 20:00:00 8.4 14 Nordeste 26 Nordeste 0 -- -- 38
2017-11-17 19:00:00 8.2 16 Nordeste 31 Nordeste 0 -- -- 42
2017-11-17 18:00:00 7.5 20 Nordeste 28 Nordeste 0 -- -- 71
2017-11-17 17:00:00 7.9 11 Nordeste 17 Nordeste 0 -- -- 71
2017-11-17 16:00:00 10.2 9 Sudeste 14 Nordeste 0 -- -- 63
2017-11-17 15:00:00 7.9 10 Nordeste 17 Nordeste 0 -- -- 75
2017-11-17 14:00:00 9.1 10 Nordeste 17 Nordeste 0 -- -- 49
2017-11-17 13:00:00 11.2 9 Este 16 Este 0 -- -- 38
2017-11-17 12:00:00 8.5 10 Nordeste 18 Nordeste 0 -- -- 44
2017-11-17 11:00:00 8.1 17 Norte 32 Norte 0 -- -- 41
2017-11-17 10:00:00 6.7 19 Norte 24 Norte 0 -- -- 61
2017-11-17 09:00:00 5.7 20 Norte 24 Norte 0 -- -- 87
2017-11-17 08:00:00 5.7 17 Norte 20 Norte 0 -- -- 87
2017-11-17 07:00:00 5.4 18 Norte 28 Norte 0 -- -- 89
2017-11-17 06:00:00 5.6 24 Norte 29 Norte 0 -- -- 87
2017-11-17 05:00:00 5.9 12 Noroeste 21 Noroeste 0 -- -- 77
2017-11-17 04:00:00 6.4 6 Noroeste 18 Norte 0 -- -- 54
2017-11-17 03:00:00 6 16 Norte 21 Norte 0 -- -- 67
2017-11-17 02:00:00 6.8 10 Norte 13 Norte 0 -- -- 40
2017-11-17 01:00:00 6.9 9 Norte 13 Norte 0 -- -- 37
2017-11-17 00:00:00 7 8 Noroeste 13 Noroeste 0 -- -- 37
2017-11-16 23:00:00 7.4 5 Noroeste 12 Noroeste 0 -- -- 37
2017-11-16 22:00:00 6.8 10 Noroeste 12 Noroeste 0 -- -- 45
2017-11-16 21:00:00 7.3 5 Noroeste 12 Oeste 0 -- -- 48
2017-11-16 20:00:00 7.2 8 Sudoeste 13 Sudoeste 0 -- -- 64
2017-11-16 19:00:00 6.9 8 Sudoeste 12 Sur 0 -- -- 73
2017-11-16 18:00:00 7.1 9 Sur 13 Sur 0 -- -- 69
2017-11-16 17:00:00 8.5 6 Sur 12 Sur 0 -- -- 58
2017-11-16 16:00:00 9.6 9 Sudoeste 18 Sudoeste 0 -- -- 53
2017-11-16 15:00:00 10.4 6 Sudoeste 20 Sur 0 -- -- 50
2017-11-16 14:00:00 10.1 4 Sudoeste 18 Sudeste 0 -- -- 49
2017-11-16 13:00:00 10.4 3 Este 15 Sudeste 0 -- -- 48
2017-11-16 12:00:00 10.9 2 Oeste 10 Sudoeste 0 -- -- 40
2017-11-16 11:00:00 11.2 4 Sudoeste 10 Sudoeste 0 -- -- 36
2017-11-16 10:00:00 11 0 Calma 9 Sur 0 -- -- 32
2017-11-16 09:00:00 8.2 4 Sur 8 Sur 0 -- -- 37
2017-11-16 08:00:00 6.4 0 Calma 4 Norte 0 -- -- 42
2017-11-16 07:00:00 5.3 5 Norte 14 Norte 0 -- -- 70
2017-11-16 06:00:00 5.5 12 Norte 18 Norte 0 -- -- 86
2017-11-16 05:00:00 5.5 13 Norte 21 Norte 0 -- -- 82
2017-11-16 04:00:00 5.7 13 Norte 16 Norte 0 -- -- 58
2017-11-16 03:00:00 6.9 12 Nordeste 18 Norte 0 -- -- 28
2017-11-16 02:00:00 7 12 Norte 19 Norte 0 -- -- 29
2017-11-16 01:00:00 6.9 17 Norte 26 Nordeste 0 -- -- 28
2017-11-16 00:00:00 7.1 17 Norte 24 Norte 0 -- -- 27
2017-11-15 23:00:00 6.9 8 Norte 13 Norte 0 -- -- 27
2017-11-15 22:00:00 7.3 9 Nordeste 13 Nordeste 0 -- -- 25
2017-11-15 21:00:00 7.2 3 Norte 8 Norte 0 -- -- 22
2017-11-15 20:00:00 6.2 0 Calma 8 Sudoeste 0 -- -- 39
2017-11-15 19:00:00 7.1 3 Norte 11 Norte 0 -- -- 35
2017-11-15 18:00:00 6.5 5 Sudeste 13 Sudeste 0 -- -- 47
2017-11-15 17:00:00 7.5 5 Sudeste 12 Nordeste 0 -- -- 33
2017-11-15 16:00:00 5.6 11 Norte 30 Norte 0 -- -- 66
2017-11-15 15:00:00 5.7 24 Norte 36 Norte 0 -- -- 70
2017-11-15 14:00:00 6.4 30 Noroeste 42 Norte 0 -- -- 69
2017-11-15 13:00:00 7 29 Noroeste 46 Norte 0 -- -- 68
2017-11-15 12:00:00 6.4 26 Noroeste 45 Noroeste 0 -- -- 69
2017-11-15 11:00:00 6.9 35 Noroeste 53 Noroeste 0 -- -- 70
2017-11-15 10:00:00 6.3 34 Noroeste 51 Noroeste 0 -- -- 70
2017-11-15 09:00:00 5.2 35 Noroeste 51 Noroeste 0 -- -- 79
2017-11-15 08:00:00 4.5 36 Noroeste 54 Noroeste 0 -- -- 77
2017-11-15 07:00:00 4.1 35 Noroeste 58 Norte 0 -- -- 80
2017-11-15 06:00:00 4.1 40 Noroeste 56 Noroeste 0 -- -- 73
2017-11-15 05:00:00 3.6 32 Noroeste 52 Noroeste 0 -- -- 69
2017-11-15 04:00:00 3.6 28 Noroeste 47 Noroeste 0 -- -- 74
2017-11-15 03:00:00 3.8 34 Noroeste 50 Norte 0 -- -- 75
2017-11-15 02:00:00 3.9 31 Norte 55 Norte 0 -- -- 74
2017-11-15 01:00:00 3.2 30 Norte 56 Norte 0 -- -- 71
2017-11-15 00:00:00 3.1 35 Norte 66 Norte 0 -- -- 68
2017-11-14 23:00:00 3.3 49 Norte 72 Norte 0 -- -- 65
2017-11-14 22:00:00 3 49 Norte 78 Nordeste 0 -- -- 72
2017-11-14 21:00:00 2.9 51 Norte 86 Norte 0 -- -- 71
2017-11-14 20:00:00 3 42 Norte 64 Norte 0 -- -- 71
2017-11-14 19:00:00 2.8 35 Norte 55 Norte 0 -- -- 71
2017-11-14 18:00:00 2.8 26 Norte 60 Norte 0 -- -- 69
2017-11-14 17:00:00 2.7 26 Norte 59 Nordeste 0 -- -- 67
2017-11-14 16:00:00 3 28 Norte 58 Norte 0 -- -- 64
2017-11-14 15:00:00 3 26 Norte 66 Norte 0 -- -- 61
2017-11-14 14:00:00 2.7 38 Norte 77 Nordeste 0 -- -- 64
2017-11-14 13:00:00 2.7 41 Norte 79 Nordeste 0 -- -- 61
2017-11-14 12:00:00 2.9 40 Norte 75 Nordeste 0 -- -- 60
2017-11-14 11:00:00 2.8 40 Norte 79 Norte 0 -- -- 59
2017-11-14 10:00:00 3.1 39 Norte 86 Nordeste 0 -- -- 60
2017-11-14 09:00:00 3.4 41 Norte 75 Nordeste 0 -- -- 62
2017-11-14 08:00:00 3.8 36 Noroeste 75 Nordeste 0 -- -- 70
2017-11-14 07:00:00 3 36 Norte 76 Nordeste 0 -- -- 59
2017-11-14 06:00:00 2.9 28 Norte 84 Nordeste 0 -- -- 52
2017-11-14 05:00:00 3.3 45 Norte 82 Nordeste 0 -- -- 53
2017-11-14 04:00:00 4 33 Norte 71 Nordeste 0 -- -- 52
2017-11-14 03:00:00 4.3 26 Noroeste 62 Noroeste 0 -- -- 55
2017-11-14 02:00:00 4.3 44 Noroeste 74 Noroeste 0 -- -- 50
2017-11-14 01:00:00 4 35 Noroeste 65 Noroeste 0 -- -- 55
2017-11-14 00:00:00 4.6 41 Noroeste 72 Noroeste 0 -- -- 44
2017-11-13 23:00:00 4.8 45 Noroeste 72 Norte 0 -- -- 42
2017-11-13 22:00:00 5 28 Norte 82 Norte 0 -- -- 34
2017-11-13 21:00:00 5.4 47 Noroeste 76 Norte 0 -- -- 32
2017-11-13 20:00:00 5.5 44 Norte 82 Norte 0 -- -- 35
2017-11-13 19:00:00 5.2 43 Noroeste 76 Norte 0 -- -- 33
2017-11-13 18:00:00 5.3 51 Norte 87 Noroeste 0 -- -- 32
2017-11-13 17:00:00 5.6 66 Noroeste 97 Norte 0 -- -- 33
2017-11-13 16:00:00 5.9 49 Norte 75 Norte 0 -- -- 36
2017-11-13 15:00:00 5.7 51 Noroeste 104 Norte 0 -- -- 39
2017-11-13 14:00:00 5.7 54 Norte 91 Noroeste 0 -- -- 34
2017-11-13 13:00:00 5.3 53 Norte 94 Norte 0 -- -- 43
2017-11-13 12:00:00 3.5 50 Norte 85 Noroeste 0.7 -- -- 62
2017-11-13 11:00:00 2.6 45 Norte 67 Norte 1.3 -- -- 81
2017-11-13 10:00:00 2.2 40 Norte 64 Norte 2.7 -- -- 84
2017-11-13 09:00:00 3.9 30 Nordeste 47 Este 1 -- -- 83
2017-11-13 08:00:00 4.2 12 Nordeste 36 Nordeste 0.3 -- -- 88
2017-11-13 07:00:00 4.3 17 Norte 24 Nordeste 0.5 -- -- 88
2017-11-13 06:00:00 5 13 Este 37 Nordeste 0.4 -- -- 88
2017-11-13 05:00:00 6.6 27 Norte 85 Noroeste 0.5 -- -- 88
2017-11-13 04:00:00 7.9 59 Noroeste 93 Noroeste 0 -- -- 81
2017-11-13 03:00:00 8.3 60 Noroeste 93 Noroeste 0 -- -- 77
2017-11-13 02:00:00 8.1 50 Noroeste 89 Noroeste 0 -- -- 81
2017-11-13 01:00:00 8.1 52 Noroeste 83 Noroeste 0 -- -- 82
2017-11-13 00:00:00 8 47 Noroeste 77 Noroeste 0 -- -- 75
2017-11-12 23:00:00 7.9 32 Noroeste 67 Noroeste 0 -- -- 77
2017-11-12 22:00:00 7.4 36 Noroeste 70 Noroeste 0 -- -- 68
2017-11-12 21:00:00 7.2 32 Noroeste 58 Noroeste 0 -- -- 75
2017-11-12 20:00:00 7.2 35 Noroeste 63 Norte 0 -- -- 74
2017-11-12 19:00:00 7.2 42 Noroeste 61 Noroeste 0 -- -- 69
2017-11-12 18:00:00 7.1 35 Noroeste 49 Noroeste 0 -- -- 70
2017-11-12 17:00:00 7.8 28 Noroeste 57 Norte 0 -- -- 83
2017-11-12 16:00:00 7.1 46 Norte 59 Noroeste 0 -- -- 85
2017-11-12 15:00:00 7.6 46 Noroeste 59 Noroeste 0 -- -- 75
2017-11-12 14:00:00 8.3 35 Noroeste 47 Norte 0 -- -- 79
2017-11-12 13:00:00 8.5 31 Norte 45 Norte 0 -- -- 86
2017-11-12 12:00:00 8.6 31 Norte 44 Noroeste 0 -- -- 86
2017-11-12 11:00:00 8.3 28 Norte 44 Nordeste 0 -- -- 81
2017-11-12 10:00:00 7.9 29 Norte 49 Norte 0 -- -- 88
2017-11-12 09:00:00 7.7 40 Noroeste 54 Noroeste 0 -- -- 88
2017-11-12 08:00:00 7.4 39 Norte 51 Norte 0 -- -- 88
2017-11-12 07:00:00 7 35 Norte 50 Norte 0 -- -- 88
2017-11-12 06:00:00 7.8 42 Norte 54 Norte 0 -- -- 88
2017-11-12 05:00:00 7.9 45 Norte 54 Norte 0 -- -- 88
2017-11-12 04:00:00 7.8 46 Norte 57 Norte 0 -- -- 88
2017-11-12 03:00:00 7.6 45 Norte 59 Norte 0 -- -- 88
2017-11-12 02:00:00 7.5 53 Norte 67 Norte 0 -- -- 88
2017-11-12 01:00:00 8.3 40 Noroeste 56 Noroeste 0 -- -- 88
2017-11-12 00:00:00 8.3 33 Noroeste 53 Noroeste 0 -- -- 88
2017-11-11 23:00:00 7.9 37 Noroeste 60 Noroeste 0 -- -- 86
2017-11-11 22:00:00 8.1 46 Noroeste 65 Noroeste 0 -- -- 87
2017-11-11 21:00:00 8 46 Noroeste 56 Norte 0 -- -- 85
2017-11-11 20:00:00 7.5 35 Noroeste 49 Norte 0 -- -- 77
2017-11-11 19:00:00 6.6 35 Noroeste 46 Norte 0 -- -- 88
2017-11-11 18:00:00 7.6 32 Norte 40 Norte 0 -- -- 88
2017-11-11 17:00:00 7.3 30 Norte 36 Norte 0 -- -- 85
2017-11-11 16:00:00 7.3 23 Norte 35 Norte 0 -- -- 85
2017-11-11 15:00:00 7.7 30 Norte 38 Norte 0 -- -- 88
2017-11-11 14:00:00 8.4 24 Noroeste 35 Noroeste 0 -- -- 85
2017-11-11 13:00:00 8.4 25 Noroeste 40 Norte 0 -- -- 86
2017-11-11 12:00:00 8.8 22 Noroeste 36 Noroeste 0 -- -- 84
2017-11-11 11:00:00 8.1 28 Noroeste 57 Norte 0 -- -- 89
2017-11-11 10:00:00 7.7 25 Noroeste 40 Noroeste 0 -- -- 89
2017-11-11 09:00:00 7.6 21 Noroeste 35 Norte 0 -- -- 89
2017-11-11 08:00:00 6.9 26 Noroeste 39 Norte 0 -- -- 89
2017-11-11 07:00:00 6.6 27 Noroeste 46 Noroeste 0 -- -- 89
2017-11-11 06:00:00 6.6 28 Noroeste 43 Noroeste 0 -- -- 88
2017-11-11 05:00:00 6.6 18 Noroeste 41 Norte 0 -- -- 87
2017-11-11 04:00:00 6.3 28 Noroeste 47 Norte 0 -- -- 84
2017-11-11 03:00:00 5.8 30 Noroeste 48 Norte 0 -- -- 83
2017-11-11 02:00:00 5.5 27 Noroeste 43 Noroeste 0 -- -- 85
2017-11-11 01:00:00 5.5 25 Noroeste 38 Noroeste 0 -- -- 86
2017-11-11 00:00:00 5.1 23 Noroeste 33 Noroeste 0 -- -- 77
2017-11-10 23:00:00 5 19 Noroeste 28 Norte 0 -- -- 81
2017-11-10 22:00:00 5.1 19 Norte 32 Norte 0 -- -- 81
2017-11-10 21:00:00 5.4 24 Norte 44 Norte 0 -- -- 78
2017-11-10 20:00:00 5.4 36 Norte 50 Noroeste 0 -- -- 82
2017-11-10 19:00:00 5.2 33 Norte 44 Norte 0 -- -- 83
2017-11-10 18:00:00 5.2 24 Norte 63 Norte 0 -- -- 81
2017-11-10 17:00:00 5.2 47 Norte 67 Nordeste 0 -- -- 75
2017-11-10 16:00:00 5.1 37 Norte 80 Norte 0 -- -- 77
2017-11-10 15:00:00 4.5 44 Norte 77 Noroeste 0 -- -- 83
2017-11-10 14:00:00 4.7 42 Norte 70 Noroeste 0 -- -- 71
2017-11-10 13:00:00 4.6 43 Norte 66 Norte 0 -- -- 77
2017-11-10 12:00:00 4.4 42 Norte 67 Nordeste 0 -- -- 80
2017-11-10 11:00:00 4.2 35 Norte 56 Norte 0 -- -- 80
2017-11-10 10:00:00 4 32 Norte 54 Norte 0 -- -- 85
2017-11-10 09:00:00 3.9 31 Norte 50 Nordeste 0 -- -- 85
2017-11-10 08:00:00 3.8 30 Norte 57 Nordeste 0 -- -- 86
2017-11-10 07:00:00 3.6 34 Norte 65 Nordeste 0 -- -- 82
2017-11-10 06:00:00 3.6 36 Norte 75 Nordeste 0 -- -- 83
2017-11-10 05:00:00 3.4 37 Norte 73 Nordeste 0.1 -- -- 85
2017-11-10 04:00:00 3 28 Norte 57 Norte 0.1 -- -- 86
2017-11-10 03:00:00 2.4 26 Norte 57 Norte 0.4 -- -- 85
2017-11-10 02:00:00 3.1 30 Norte 57 Nordeste 0 -- -- 81
2017-11-10 01:00:00 3.3 27 Norte 61 Nordeste 0 -- -- 72
2017-11-10 00:00:00 2.5 18 Norte 42 Norte 0 -- -- 77
2017-11-09 23:00:00 2.9 16 Norte 40 Norte 0 -- -- 77
2017-11-09 22:00:00 3.5 19 Norte 27 Noroeste 0 -- -- 79
2017-11-09 21:00:00 2.7 20 Noroeste 26 Noroeste 0 -- -- 84
2017-11-09 20:00:00 2.6 15 Noroeste 34 Norte 2.6 -- -- 85
2017-11-09 19:00:00 3.3 12 Noroeste 21 Norte 0 -- -- 88
2017-11-09 18:00:00 3.1 15 Norte 27 Noroeste 0 -- -- 85
2017-11-09 17:00:00 3.6 17 Norte 25 Norte 0 -- -- 85
2017-11-09 16:00:00 3.5 15 Noroeste 40 Norte 0 -- -- 73
2017-11-09 15:00:00 4 23 Noroeste 44 Noroeste 0 -- -- 85
2017-11-09 14:00:00 4.4 16 Norte 24 Norte 0 -- -- 81
2017-11-09 13:00:00 4.3 16 Norte 25 Noroeste 0 -- -- 86
2017-11-09 12:00:00 4.3 10 Norte 23 Norte 0 -- -- 84
2017-11-09 11:00:00 3.5 12 Norte 26 Noroeste 0 -- -- 89
2017-11-09 10:00:00 2.7 15 Noroeste 30 Noroeste 0.2 -- -- 84
2017-11-09 09:00:00 3.4 22 Norte 31 Norte 0 -- -- 67
2017-11-09 08:00:00 3.2 25 Norte 37 Nordeste 0.3 -- -- 75
2017-11-09 07:00:00 2.1 23 Este 39 Este 1.2 -- -- 89
2017-11-09 06:00:00 2.3 7 Sudeste 34 Sudeste 2.9 -- -- 89
2017-11-09 05:00:00 3.3 19 Sudeste 42 Sudeste 0.1 -- -- 89
2017-11-09 04:00:00 3.1 29 Sudeste 40 Sudeste 0 -- -- 89
2017-11-09 03:00:00 3.2 14 Este 26 Sudeste 0.5 -- -- 88
2017-11-09 02:00:00 3.6 9 Nordeste 24 Este 1.4 -- -- 85
2017-11-09 01:00:00 4 16 Este 36 Norte 0 -- -- 75
2017-11-09 00:00:00 4.4 28 Norte 40 Nordeste 0 -- -- 89
2017-11-08 23:00:00 4.3 30 Norte 73 Noroeste 0.6 -- -- 89
2017-11-08 22:00:00 5.3 30 Noroeste 58 Noroeste 0 -- -- 89
2017-11-08 21:00:00 5.5 42 Noroeste 67 Noroeste 0.1 -- -- 89
2017-11-08 20:00:00 5.6 24 Noroeste 50 Noroeste 0 -- -- 80
2017-11-08 19:00:00 5.2 24 Noroeste 37 Noroeste 0 -- -- 81
2017-11-08 18:00:00 5.3 28 Noroeste 44 Noroeste 0 -- -- 77
2017-11-08 17:00:00 5.6 27 Noroeste 50 Noroeste 0 -- -- 75
2017-11-08 16:00:00 6.6 34 Noroeste 50 Noroeste 0 -- -- 72
2017-11-08 15:00:00 6.4 36 Noroeste 92 Noroeste 0 -- -- 69
2017-11-08 14:00:00 6.7 24 Noroeste 37 Noroeste 0 -- -- 71
2017-11-08 13:00:00 7.8 21 Noroeste 47 Norte 0 -- -- 69
2017-11-08 12:00:00 5.5 22 Noroeste 46 Noroeste 0 -- -- 81
2017-11-08 11:00:00 5.8 28 Noroeste 54 Noroeste 0 -- -- 82
2017-11-08 10:00:00 6.1 35 Noroeste 66 Norte 0 -- -- 80
2017-11-08 09:00:00 6.5 37 Noroeste 62 Noroeste 0 -- -- 84
2017-11-08 08:00:00 5.9 30 Noroeste 57 Norte 0 -- -- 82
2017-11-08 07:00:00 6 25 Noroeste 43 Noroeste 0 -- -- 77
2017-11-08 06:00:00 6 22 Noroeste 39 Noroeste 0 -- -- 65
2017-11-08 05:00:00 5.2 13 Noroeste 33 Noroeste 0 -- -- 61
2017-11-08 04:00:00 5.8 19 Noroeste 37 Noroeste 0 -- -- 59
2017-11-08 03:00:00 4.8 13 Noroeste 24 Noroeste 0 -- -- 60
2017-11-08 02:00:00 4.8 14 Noroeste 32 Noroeste 0 -- -- 63
2017-11-08 01:00:00 4.8 23 Noroeste 31 Noroeste 0 -- -- 64
2017-11-08 00:00:00 4.4 14 Noroeste 32 Noroeste 0 -- -- 65
2017-11-07 23:00:00 4.4 18 Noroeste 31 Noroeste 0 -- -- 62
2017-11-07 22:00:00 4.5 23 Noroeste 33 Noroeste 0 -- -- 60
2017-11-07 21:00:00 4.1 21 Noroeste 32 Noroeste 0 -- -- 62
2017-11-07 20:00:00 4.1 23 Noroeste 37 Noroeste 0 -- -- 62
2017-11-07 19:00:00 4 20 Noroeste 32 Noroeste 0 -- -- 59
2017-11-07 18:00:00 4 14 Noroeste 30 Norte 0 -- -- 56
2017-11-07 17:00:00 5.1 21 Noroeste 31 Noroeste 0 -- -- 49
2017-11-07 16:00:00 5.9 22 Noroeste 35 Norte 0 -- -- 50
2017-11-07 15:00:00 6.5 23 Noroeste 37 Noroeste 0 -- -- 57
2017-11-07 14:00:00 6.9 22 Noroeste 36 Noroeste 0 -- -- 59
2017-11-07 13:00:00 6 22 Noroeste 39 Norte 0 -- -- 57
2017-11-07 12:00:00 7.3 20 Noroeste 33 Noroeste 0 -- -- 59
2017-11-07 11:00:00 8.3 15 Noroeste 30 Noroeste 0 -- -- 54
2017-11-07 10:00:00 7.7 16 Noroeste 27 Noroeste 0 -- -- 56
2017-11-07 09:00:00 6.2 18 Noroeste 26 Noroeste 0 -- -- 60
2017-11-07 08:00:00 4.4 9 Oeste 22 Oeste 0 -- -- 71
2017-11-07 07:00:00 3.7 12 Noroeste 26 Noroeste 0 -- -- 71
2017-11-07 06:00:00 4 10 Noroeste 26 Noroeste 0 -- -- 70
2017-11-07 05:00:00 4 5 Oeste 18 Sudeste 0 -- -- 68
2017-11-07 04:00:00 3.4 11 Este 23 Este 0 -- -- 68
2017-11-07 03:00:00 4.2 8 Norte 17 Noroeste 0 -- -- 64
2017-11-07 02:00:00 4 9 Noroeste 23 Noroeste 0 -- -- 68
2017-11-07 01:00:00 4.1 17 Noroeste 25 Norte 0 -- -- 69
2017-11-07 00:00:00 4.4 20 Noroeste 37 Norte 0 -- -- 67
2017-11-06 23:00:00 4.7 28 Norte 52 Noroeste 0 -- -- 60
2017-11-06 22:00:00 5.5 28 Noroeste 58 Norte 0 -- -- 47
2017-11-06 21:00:00 5.7 33 Noroeste 59 Noroeste 0 -- -- 42
2017-11-06 20:00:00 5.4 30 Noroeste 66 Norte 0 -- -- 40
2017-11-06 19:00:00 5.5 38 Noroeste 70 Norte 0 -- -- 38
2017-11-06 18:00:00 5.1 48 Noroeste 75 Noroeste 0 -- -- 38
2017-11-06 17:00:00 5.4 45 Noroeste 77 Noroeste 0 -- -- 38
2017-11-06 16:00:00 5.9 44 Noroeste 76 Noroeste 0 -- -- 39
2017-11-06 15:00:00 6.5 42 Noroeste 76 Noroeste 0 -- -- 37
2017-11-06 14:00:00 6.1 48 Noroeste 75 Norte 0 -- -- 37
2017-11-06 13:00:00 6.3 43 Noroeste 77 Norte 0 -- -- 40
2017-11-06 12:00:00 5.5 40 Noroeste 69 Noroeste 0 -- -- 48
2017-11-06 11:00:00 5 40 Noroeste 70 Norte 0 -- -- 52
2017-11-06 10:00:00 4.9 39 Noroeste 73 Noroeste 0 -- -- 56
2017-11-06 09:00:00 4.6 40 Noroeste 71 Noroeste 0 -- -- 62
2017-11-06 08:00:00 4.3 43 Noroeste 78 Norte 0 -- -- 72
2017-11-06 07:00:00 4.4 43 Norte 65 Noroeste 0.5 -- -- 82
2017-11-06 06:00:00 4.6 29 Noroeste 46 Noroeste 0 -- -- 85
2017-11-06 05:00:00 4.7 25 Noroeste 43 Norte 0 -- -- 89
2017-11-06 04:00:00 5.4 22 Norte 45 Oeste 2.8 -- -- 89
2017-11-06 03:00:00 5.6 24 Noroeste 65 Norte 2.6 -- -- 88
2017-11-06 02:00:00 5.7 37 Noroeste 71 Norte 0 -- -- 86
2017-11-06 01:00:00 5.8 47 Noroeste 74 Noroeste 1.3 -- -- 86
2017-11-06 00:00:00 6.4 35 Noroeste 67 Noroeste 0 -- -- 80
2017-11-05 23:00:00 6.8 43 Noroeste 73 Norte 0 -- -- 82
2017-11-05 22:00:00 6.9 39 Noroeste 76 Noroeste 0.5 -- -- 86
2017-11-05 21:00:00 7.4 28 Noroeste 48 Noroeste 0 -- -- 89
2017-11-05 20:00:00 7.7 17 Noroeste 48 Norte 0 -- -- 89
2017-11-05 19:00:00 8.5 29 Noroeste 53 Norte 0 -- -- 89
2017-11-05 18:00:00 8.8 40 Noroeste 57 Norte 0 -- -- 89
2017-11-05 17:00:00 8.5 34 Noroeste 55 Noroeste 0 -- -- 89
2017-11-05 16:00:00 8.9 36 Noroeste 57 Noroeste 0 -- -- 89
2017-11-05 15:00:00 9.8 28 Noroeste 45 Noroeste 0.5 -- -- 89
2017-11-05 14:00:00 9.8 22 Noroeste 33 Noroeste 2.2 -- -- 88
2017-11-05 13:00:00 10.9 9 Noroeste 26 Noroeste 0 -- -- 78
2017-11-05 12:00:00 10.1 16 Noroeste 22 Noroeste 0.6 -- -- 79
2017-11-05 11:00:00 10.6 7 Noroeste 18 Noroeste 0.1 -- -- 79
2017-11-05 10:00:00 9.1 12 Norte 41 Norte 0 -- -- 88
2017-11-05 09:00:00 8.8 26 Noroeste 61 Noroeste 0 -- -- 88
2017-11-05 08:00:00 9 37 Noroeste 63 Noroeste 0 -- -- 88
2017-11-05 07:00:00 9.1 33 Noroeste 53 Noroeste 0 -- -- 81
2017-11-05 06:00:00 9.6 22 Noroeste 36 Noroeste 0 -- -- 87
2017-11-05 05:00:00 9.4 25 Noroeste 45 Norte 0 -- -- 84
2017-11-05 04:00:00 10.3 23 Noroeste 41 Noroeste 0 -- -- 87
2017-11-05 03:00:00 10.1 21 Noroeste 44 Oeste 0 -- -- 81
2017-11-05 02:00:00 10.3 19 Oeste 50 Oeste 0.1 -- -- 83
2017-11-05 01:00:00 9.9 23 Noroeste 54 Oeste 0.4 -- -- 86
2017-11-05 00:00:00 10.5 21 Oeste 64 Oeste 0 -- -- 72
2017-11-04 23:00:00 10.8 30 Oeste 57 Oeste 0 -- -- 56
2017-11-04 22:00:00 11.3 26 Oeste 44 Oeste 0 -- -- 62
2017-11-04 21:00:00 11.3 19 Oeste 35 Sudoeste 0.4 -- -- 74
2017-11-04 20:00:00 11.3 23 Sudoeste 51 Oeste 0.5 -- -- 69
2017-11-04 19:00:00 12.3 14 Sudoeste 26 Sudoeste 0 -- -- 89
2017-11-04 18:00:00 12.6 14 Sur 31 Sur 0 -- -- 89
2017-11-04 17:00:00 13.4 14 Sur 23 Sur 0 -- -- 75
2017-11-04 16:00:00 13.8 15 Sudoeste 27 Sudoeste 0 -- -- 82
2017-11-04 15:00:00 14.4 12 Sudoeste 24 Sudoeste 0 -- -- 87
2017-11-04 14:00:00 15 5 Sudoeste 20 Sudoeste 0 -- -- 82
2017-11-04 13:00:00 16.5 6 Sudoeste 17 Oeste 0 -- -- 70
2017-11-04 12:00:00 16.3 6 Oeste 28 Oeste 0 -- -- 64
2017-11-04 11:00:00 17.6 19 Oeste 49 Oeste 0 -- -- 35
2017-11-04 10:00:00 18 24 Oeste 55 Oeste 0 -- -- 31
2017-11-04 09:00:00 18.5 18 Oeste 31 Sudoeste 0 -- -- 26
2017-11-04 08:00:00 16.2 18 Oeste 50 Oeste 0 -- -- 36
2017-11-04 07:00:00 14.4 18 Oeste 31 Oeste 0 -- -- 43
2017-11-04 06:00:00 13.8 17 Sudoeste 27 Sur 0 -- -- 38
2017-11-04 05:00:00 14.1 23 Sur 36 Sur 0 -- -- 36
2017-11-04 04:00:00 14.8 30 Sur 40 Sur 0 -- -- 35
2017-11-04 03:00:00 15.3 21 Sur 27 Sur 0 -- -- 34
2017-11-04 02:00:00 14 16 Sur 35 Sur 0 -- -- 41
2017-11-04 01:00:00 15.1 24 Sur 35 Sur 0 -- -- 29
2017-11-04 00:00:00 15.3 18 Sur 39 Sur 0 -- -- 32
2017-11-03 23:00:00 15 25 Sur 35 Sur 0 -- -- 37
2017-11-03 22:00:00 14.7 22 Sur 28 Sur 0 -- -- 35
2017-11-03 21:00:00 16.2 21 Sur 25 Sur 0 -- -- 24
2017-11-03 20:00:00 15.5 11 Sur 21 Sudoeste 0 -- -- 30
2017-11-03 19:00:00 13.7 9 Sur 20 Sur 0 -- -- 63
2017-11-03 18:00:00 13 12 Sur 21 Sudeste 0 -- -- 83
2017-11-03 17:00:00 13.9 18 Sur 24 Sur 0 -- -- 80
2017-11-03 16:00:00 14.8 18 Sur 27 Sur 0 -- -- 71
2017-11-03 15:00:00 15.9 15 Sur 26 Sur 0 -- -- 64
2017-11-03 14:00:00 16.8 10 Sur 23 Sudeste 0 -- -- 55
2017-11-03 13:00:00 15.7 7 Sur 20 Sur 0 -- -- 66
2017-11-03 12:00:00 15.4 11 Sur 28 Sur 0 -- -- 66
2017-11-03 11:00:00 15.3 18 Sur 27 Sur 0 -- -- 63
2017-11-03 10:00:00 13.7 23 Sur 31 Sur 0 -- -- 59
2017-11-03 09:00:00 13.6 17 Sur 22 Sur 0 -- -- 53
2017-11-03 08:00:00 14.3 9 Sur 17 Sur 0 -- -- 20
2017-11-03 07:00:00 12.6 14 Sur 17 Sur 0 -- -- 22
2017-11-03 06:00:00 11.5 0 Calma 10 Sudeste 0 -- -- 30
2017-11-03 05:00:00 10 3 Sudeste 19 Sudeste 0 -- -- 56
2017-11-03 04:00:00 9.8 13 Sudeste 17 Sudeste 0 -- -- 63
2017-11-03 03:00:00 10 9 Sudeste 12 Sudeste 0 -- -- 66
2017-11-03 02:00:00 11 6 Sur 15 Sudeste 0 -- -- 44
2017-11-03 01:00:00 11.7 11 Sur 18 Sur 0 -- -- 33
2017-11-03 00:00:00 11.2 15 Sudeste 21 Sudeste 0 -- -- 45
2017-11-02 23:00:00 10.5 19 Sudeste 24 Sudeste 0 -- -- 66
2017-11-02 22:00:00 10.2 21 Sudeste 23 Sudeste 0 -- -- 88
2017-11-02 21:00:00 10.4 22 Sudeste 24 Sur 0 -- -- 88
2017-11-02 20:00:00 10.4 10 Sur 17 Sur 0 -- -- 88
2017-11-02 19:00:00 11.3 12 Sur 29 Sur 0 -- -- 88
2017-11-02 18:00:00 11.6 21 Sur 28 Sudoeste 0 -- -- 88
2017-11-02 17:00:00 12.6 10 Sur 25 Sur 0 -- -- 81
2017-11-02 16:00:00 13.6 15 Sur 23 Sur 0 -- -- 61
2017-11-02 15:00:00 15.1 9 Sur 21 Sur 0 -- -- 57
2017-11-02 14:00:00 14.5 7 Sur 17 Sur 0 -- -- 61
2017-11-02 13:00:00 14.2 8 Sur 22 Sur 0 -- -- 61
2017-11-02 12:00:00 13.7 13 Sur 26 Sudeste 0 -- -- 66
2017-11-02 11:00:00 13.5 15 Sur 22 Sur 0 -- -- 70
2017-11-02 10:00:00 12.6 15 Sur 20 Sur 0 -- -- 71
2017-11-02 09:00:00 12.2 13 Sur 17 Sur 0 -- -- 63
2017-11-02 08:00:00 11.1 10 Sur 16 Sur 0 -- -- 60
2017-11-02 07:00:00 10 13 Sur 18 Sur 0 -- -- 62
2017-11-02 06:00:00 9.7 15 Sur 18 Sur 0 -- -- 66
2017-11-02 05:00:00 10 12 Sur 15 Sur 0 -- -- 62
2017-11-02 04:00:00 10 7 Sur 10 Sudoeste 0 -- -- 65
2017-11-02 03:00:00 10 7 Sur 13 Sur 0 -- -- 67
2017-11-02 02:00:00 10.1 9 Sur 11 Sur 0 -- -- 65
2017-11-02 01:00:00 10 3 Sudoeste 8 Sudoeste 0 -- -- 71
2017-11-02 00:00:00 9.8 0 Calma 9 Sur 0 -- -- 81
2017-11-01 23:00:00 10.1 4 Sur 14 Sur 0 -- -- 80
2017-11-01 22:00:00 10 11 Sur 16 Sur 0 -- -- 88
2017-11-01 21:00:00 9.7 9 Sudeste 17 Sudeste 0 -- -- 87
2017-11-01 20:00:00 9.6 15 Sudeste 19 Sudeste 0 -- -- 83
2017-11-01 19:00:00 10.1 16 Sudeste 19 Sudeste 0 -- -- 78
2017-11-01 18:00:00 10.3 14 Sudeste 20 Sudeste 0 -- -- 75
2017-11-01 17:00:00 11.1 13 Sudeste 16 Sudeste 0 -- -- 74
2017-11-01 16:00:00 11.9 10 Sur 17 Sudoeste 0 -- -- 66
2017-11-01 15:00:00 13.9 8 Sur 27 Sur 0 -- -- 58
2017-11-01 14:00:00 13.6 6 Nordeste 14 Sudeste 0 -- -- 57
2017-11-01 13:00:00 11.9 10 Norte 18 Norte 0 -- -- 69
2017-11-01 12:00:00 13.1 9 Norte 15 Nordeste 0 -- -- 57
2017-11-01 11:00:00 11.8 7 Norte 17 Norte 0 -- -- 61
2017-11-01 10:00:00 11.3 10 Nordeste 19 Nordeste 0 -- -- 61
2017-11-01 09:00:00 10.1 14 Norte 30 Norte 0 -- -- 65
2017-11-01 08:00:00 9.3 22 Norte 37 Norte 0 -- -- 69
2017-11-01 07:00:00 8.7 22 Norte 29 Norte 0 -- -- 75
2017-11-01 06:00:00 8.8 21 Norte 29 Norte 0 -- -- 69
2017-11-01 05:00:00 8.9 21 Norte 29 Noroeste 0 -- -- 68
2017-11-01 04:00:00 9 18 Norte 25 Norte 0 -- -- 65
2017-11-01 03:00:00 9.2 19 Norte 30 Norte 0 -- -- 63
2017-11-01 02:00:00 9.1 19 Norte 26 Norte 0 -- -- 63
2017-11-01 01:00:00 9.3 19 Norte 28 Nordeste 0 -- -- 61
2017-11-01 00:00:00 9.4 15 Norte 27 Nordeste 0 -- -- 60
2017-10-31 23:00:00 9.4 17 Norte 25 Norte 0 -- -- 60
2017-10-31 22:00:00 9.9 17 Norte 26 Norte 0 -- -- 58
2017-10-31 21:00:00 9.9 12 Norte 20 Norte 0 -- -- 56
2017-10-31 20:00:00 9.8 12 Norte 21 Norte 0 -- -- 59
2017-10-31 19:00:00 10 4 Nordeste 16 Noroeste 0 -- -- 61
2017-10-31 18:00:00 10.7 3 Norte 11 Nordeste 0 -- -- 63
2017-10-31 17:00:00 11.4 4 Norte 12 Norte 0 -- -- 65
2017-10-31 16:00:00 11.9 0 Calma 12 Sur 0 -- -- 68
2017-10-31 15:00:00 12.4 0 Calma 9 Norte 0 -- -- 67
2017-10-31 14:00:00 12 4 Norte 13 Oeste 0 -- -- 66
2017-10-31 13:00:00 13.1 2 Este 12 Nordeste 0 -- -- 65
2017-10-31 12:00:00 11.9 5 Norte 15 Sudeste 0 -- -- 67
2017-10-31 11:00:00 11.6 7 Sudeste 12 Este 0 -- -- 70
2017-10-31 10:00:00 12.5 2 Sur 8 Sur 0 -- -- 63
2017-10-31 09:00:00 10.9 0 Calma 7 Noroeste 0 -- -- 70
2017-10-31 08:00:00 9.3 2 Nordeste 10 Norte 0 -- -- 73
2017-10-31 07:00:00 9.5 9 Norte 13 Norte 0 -- -- 73
2017-10-31 06:00:00 9.5 7 Norte 17 Este 0 -- -- 76
2017-10-31 05:00:00 7.8 12 Este 30 Sudeste 0 -- -- 89
2017-10-31 04:00:00 7.8 17 Este 30 Sudeste 0 -- -- 89
2017-10-31 03:00:00 8.1 17 Sudeste 23 Este 0 -- -- 89
2017-10-31 02:00:00 8.7 20 Sudeste 28 Sudeste 0 -- -- 89
2017-10-31 01:00:00 9.2 22 Sudeste 32 Sudeste 0 -- -- 89
2017-10-31 00:00:00 9.8 19 Sudeste 29 Sudeste 0 -- -- 89
2017-10-30 23:00:00 10.2 22 Sudeste 29 Sudeste 0 -- -- 89
2017-10-30 22:00:00 10.3 19 Sudeste 28 Sur 0 -- -- 89
2017-10-30 21:00:00 10.5 18 Sur 26 Sudeste 0 -- -- 89
2017-10-30 20:00:00 10.5 17 Sudeste 27 Sur 0 -- -- 87
2017-10-30 19:00:00 11 17 Sudeste 26 Sudeste 0 -- -- 87
2017-10-30 18:00:00 11.5 14 Sudeste 21 Sudeste 0 -- -- 86
2017-10-30 17:00:00 12.2 6 Sudeste 20 Sur 0 -- -- 76
2017-10-30 16:00:00 11.6 6 Nordeste 15 Nordeste 0 -- -- 87
2017-10-30 15:00:00 13 5 Nordeste 13 Nordeste 0 -- -- 79
2017-10-30 14:00:00 13.2 10 Nordeste 20 Nordeste 0 -- -- 79
2017-10-30 13:00:00 14.1 6 Nordeste 24 Sudoeste 0 -- -- 69
2017-10-30 12:00:00 13.6 4 Sudoeste 16 Sur 0 -- -- 59
2017-10-30 11:00:00 13.7 7 Sudoeste 18 Sur 0 -- -- 57
2017-10-30 10:00:00 13.1 9 Sur 17 Sur 0 -- -- 55
2017-10-30 09:00:00 11.9 12 Sur 17 Sur 0 -- -- 64
2017-10-30 08:00:00 10 4 Norte 13 Norte 0 -- -- 88
2017-10-30 07:00:00 9.9 8 Norte 13 Norte 0 -- -- 88
2017-10-30 06:00:00 9.2 8 Noroeste 13 Norte 0 -- -- 88
2017-10-30 05:00:00 9.2 7 Noroeste 15 Norte 0 -- -- 87
2017-10-30 04:00:00 9.2 12 Norte 14 Norte 0 -- -- 85
2017-10-30 03:00:00 9.3 10 Norte 16 Norte 0 -- -- 80
2017-10-30 02:00:00 9.2 14 Norte 23 Norte 0 -- -- 73
2017-10-30 01:00:00 9.8 20 Norte 26 Norte 0 -- -- 53
2017-10-30 00:00:00 9.5 18 Norte 24 Norte 0 -- -- 79
2017-10-29 23:00:00 10 19 Norte 31 Norte 0 -- -- 67
2017-10-29 22:00:00 10.8 24 Norte 38 Norte 0 -- -- 42
2017-10-29 21:00:00 10.6 24 Norte 48 Noroeste 0 -- -- 87
2017-10-29 20:00:00 10.9 28 Noroeste 43 Noroeste 0 -- -- 86
2017-10-29 19:00:00 11.1 24 Noroeste 42 Norte 0 -- -- 86
2017-10-29 18:00:00 11.1 33 Noroeste 45 Norte 0 -- -- 88
2017-10-29 17:00:00 11.8 31 Noroeste 39 Noroeste 0 -- -- 87
2017-10-29 16:00:00 13.7 20 Noroeste 26 Norte 0 -- -- 75
2017-10-29 15:00:00 13.8 13 Noroeste 19 Noroeste 0 -- -- 74
2017-10-29 14:00:00 14.5 11 Noroeste 22 Noroeste 0 -- -- 63
2017-10-29 13:00:00 16.4 12 Noroeste 21 Noroeste 0 -- -- 58
2017-10-29 12:00:00 16.9 14 Noroeste 19 Noroeste 0 -- -- 58
2017-10-29 11:00:00 14.9 10 Noroeste 21 Noroeste 0 -- -- 60
2017-10-29 10:00:00 12.6 6 Noroeste 14 Norte 0 -- -- 88
2017-10-29 09:00:00 11.1 11 Norte 24 Norte 0 -- -- 88
2017-10-29 08:00:00 11.3 19 Noroeste 40 Norte 0 -- -- 88
2017-10-29 07:00:00 11.2 24 Noroeste 31 Noroeste 0 -- -- 88
2017-10-29 06:00:00 11.2 19 Noroeste 32 Noroeste 0 -- -- 88
2017-10-29 05:00:00 11.3 23 Noroeste 35 Norte 0 -- -- 88
2017-10-29 04:00:00 11.4 24 Noroeste 41 Noroeste 0 -- -- 88
2017-10-29 03:00:00 11.4 29 Noroeste 43 Norte 0 -- -- 88
2017-10-29 02:00:00 10.9 26 Noroeste 37 Noroeste 0 -- -- 88
2017-10-29 01:00:00 11.1 32 Noroeste 45 Noroeste 0 -- -- 88
2017-10-29 00:00:00 10.9 28 Noroeste 37 Noroeste 0 -- -- 88
2017-10-28 23:00:00 10.7 30 Noroeste 40 Noroeste 0 -- -- 87
2017-10-28 22:00:00 10.7 28 Noroeste 37 Noroeste 0 -- -- 86
2017-10-28 21:00:00 10.8 27 Noroeste 36 Noroeste 0 -- -- 79
2017-10-28 20:00:00 11.4 24 Noroeste 36 Noroeste 0 -- -- 69
2017-10-28 19:00:00 11.6 20 Noroeste 28 Noroeste 0 -- -- 76
2017-10-28 18:00:00 13.7 15 Noroeste 23 Noroeste 0 -- -- 65
2017-10-28 17:00:00 14 12 Noroeste 20 Norte 0 -- -- 67
2017-10-28 16:00:00 14.8 11 Noroeste 18 Noroeste 0 -- -- 64
2017-10-28 15:00:00 13.4 14 Norte 19 Norte 0 -- -- 66
2017-10-28 14:00:00 14.5 12 Norte 18 Norte 0 -- -- 63
2017-10-28 13:00:00 14.3 5 Noroeste 12 Este 0 -- -- 63
2017-10-28 12:00:00 13.5 0 Calma 14 Norte 0 -- -- 70
2017-10-28 11:00:00 12.6 5 Norte 15 Norte 0 -- -- 83
2017-10-28 10:00:00 12.8 4 Noroeste 13 Norte 0 -- -- 82
2017-10-28 09:00:00 11.9 9 Norte 21 Norte 0 -- -- 88
2017-10-28 08:00:00 12 17 Norte 27 Norte 0 -- -- 88
2017-10-28 07:00:00 11.8 19 Norte 33 Norte 0 -- -- 87
2017-10-28 06:00:00 11.9 21 Norte 28 Norte 0 -- -- 83
2017-10-28 05:00:00 11.8 22 Norte 27 Norte 0 -- -- 77
2017-10-28 04:00:00 11.6 20 Noroeste 25 Noroeste 0 -- -- 71
2017-10-28 03:00:00 12.4 14 Noroeste 17 Noroeste 0 -- -- 59
2017-10-28 02:00:00 13.3 7 Oeste 19 Este 0 -- -- 53
2017-10-28 01:00:00 13.6 19 Nordeste 26 Este 0 -- -- 51
2017-10-28 00:00:00 14 18 Nordeste 31 Este 0 -- -- 53
2017-10-27 23:00:00 13.3 15 Este 28 Este 0 -- -- 65
2017-10-27 22:00:00 13.3 7 Este 20 Este 0 -- -- 57
2017-10-27 21:00:00 12.6 9 Norte 36 Norte 0 -- -- 71
2017-10-27 20:00:00 14.2 32 Norte 46 Norte 0 -- -- 45
2017-10-27 19:00:00 14.6 40 Norte 51 Norte 0 -- -- 44
2017-10-27 18:00:00 15.5 39 Noroeste 53 Norte 0 -- -- 41
2017-10-27 17:00:00 16.2 34 Noroeste 50 Noroeste 0 -- -- 40
2017-10-27 16:00:00 16.7 40 Norte 49 Norte 0 -- -- 38
2017-10-27 15:00:00 19.4 27 Noroeste 39 Noroeste 0 -- -- 35
2017-10-27 14:00:00 20.2 17 Noroeste 31 Noroeste 0 -- -- 36
2017-10-27 13:00:00 19.1 22 Noroeste 32 Norte 0 -- -- 37
2017-10-27 12:00:00 17 24 Norte 39 Norte 0 -- -- 36
2017-10-27 11:00:00 17 27 Norte 32 Norte 0 -- -- 32
2017-10-27 10:00:00 17.1 27 Norte 33 Noroeste 0 -- -- 31
2017-10-27 09:00:00 17.1 30 Norte 35 Norte 0 -- -- 30
2017-10-27 08:00:00 16.5 32 Norte 36 Norte 0 -- -- 31
2017-10-27 07:00:00 16.6 21 Norte 26 Norte 0 -- -- 32
2017-10-27 06:00:00 16.9 22 Norte 30 Norte 0 -- -- 32
2017-10-27 05:00:00 16.5 23 Norte 32 Norte 0 -- -- 33
2017-10-27 04:00:00 16.2 26 Norte 28 Norte 0 -- -- 34
2017-10-27 03:00:00 16.2 26 Norte 31 Norte 0 -- -- 34
2017-10-27 02:00:00 16.6 23 Norte 28 Norte 0 -- -- 35
2017-10-27 01:00:00 16 22 Noroeste 28 Norte 0 -- -- 36
2017-10-27 00:00:00 16.3 25 Noroeste 31 Norte 0 -- -- 35
2017-10-26 23:00:00 16.5 19 Noroeste 23 Norte 0 -- -- 34
2017-10-26 22:00:00 16.5 18 Noroeste 21 Noroeste 0 -- -- 35
2017-10-26 21:00:00 16.4 13 Noroeste 19 Noroeste 0 -- -- 37
2017-10-26 20:00:00 17.6 5 Noroeste 8 Oeste 0 -- -- 34
2017-10-26 19:00:00 18 4 Noroeste 8 Noroeste 0 -- -- 37
2017-10-26 18:00:00 19.8 3 Oeste 9 Norte 0 -- -- 40
2017-10-26 17:00:00 18.8 5 Noroeste 10 Noroeste 0 -- -- 67
2017-10-26 16:00:00 19.2 4 Noroeste 10 Noroeste 0 -- -- 64
2017-10-26 15:00:00 20.2 4 Oeste 12 Sudoeste 0 -- -- 59
2017-10-26 14:00:00 19.2 7 Sur 16 Sur 0 -- -- 48
2017-10-26 13:00:00 20.3 4 Sudoeste 12 Sudoeste 0 -- -- 45
2017-10-26 12:00:00 19.9 5 Sudoeste 10 Sur 0 -- -- 36
2017-10-26 11:00:00 20.4 5 Sudoeste 9 Sudoeste 0 -- -- 32
2017-10-26 10:00:00 19.5 8 Sur 11 Sudoeste 0 -- -- 30
2017-10-26 09:00:00 18.4 8 Sur 14 Sur 0 -- -- 31
2017-10-26 08:00:00 16.6 11 Sur 13 Sur 0 -- -- 32
2017-10-26 07:00:00 16.7 6 Sur 9 Sur 0 -- -- 32
2017-10-26 06:00:00 16.8 0 Calma 5 Sur 0 -- -- 32
2017-10-26 05:00:00 17.1 0 Calma 7 Norte 0 -- -- 32
2017-10-26 04:00:00 16.1 5 Noroeste 10 Noroeste 0 -- -- 34
2017-10-26 03:00:00 16.1 10 Noroeste 12 Norte 0 -- -- 34
2017-10-26 02:00:00 16.6 10 Norte 15 Norte 0 -- -- 33
2017-10-26 01:00:00 17.1 12 Noroeste 17 Noroeste 0 -- -- 33
2017-10-26 00:00:00 17.1 13 Norte 21 Norte 0 -- -- 33
2017-10-25 23:00:00 16.1 17 Noroeste 21 Norte 0 -- -- 36
2017-10-25 22:00:00 16.3 17 Noroeste 22 Norte 0 -- -- 36
2017-10-25 21:00:00 16 18 Noroeste 21 Norte 0 -- -- 38
2017-10-25 20:00:00 15.6 18 Noroeste 21 Noroeste 0 -- -- 41
2017-10-25 19:00:00 15.8 12 Noroeste 17 Noroeste 0 -- -- 51
2017-10-25 18:00:00 17.6 9 Noroeste 14 Noroeste 0 -- -- 62
2017-10-25 17:00:00 17.1 0 Calma 10 Sudoeste 0 -- -- 74
2017-10-25 16:00:00 18.9 5 Norte 14 Noroeste 0 -- -- 52
2017-10-25 15:00:00 19.6 6 Noroeste 12 Norte 0 -- -- 45
2017-10-25 14:00:00 19.4 0 Calma 11 Norte 0 -- -- 35
2017-10-25 13:00:00 19.6 5 Norte 9 Noroeste 0 -- -- 27
2017-10-25 12:00:00 19.4 0 Calma 7 Sudeste 0 -- -- 28
2017-10-25 11:00:00 18.3 4 Norte 10 Norte 0 -- -- 26
2017-10-25 10:00:00 17.1 9 Norte 14 Noroeste 0 -- -- 28
2017-10-25 09:00:00 15.7 12 Noroeste 14 Noroeste 0 -- -- 31
2017-10-25 08:00:00 15 8 Noroeste 12 Noroeste 0 -- -- 30
2017-10-25 07:00:00 15.1 7 Noroeste 14 Norte 0 -- -- 30
2017-10-25 06:00:00 14.8 10 Norte 25 Norte 0 -- -- 34
2017-10-25 05:00:00 13.3 22 Noroeste 33 Noroeste 0 -- -- 44
2017-10-25 04:00:00 13.3 26 Noroeste 37 Noroeste 0 -- -- 46
2017-10-25 03:00:00 13.3 30 Noroeste 40 Noroeste 0 -- -- 47
2017-10-25 02:00:00 13.1 25 Noroeste 37 Noroeste 0 -- -- 48
2017-10-25 01:00:00 13.2 28 Noroeste 36 Noroeste 0 -- -- 48
2017-10-25 00:00:00 12.9 23 Noroeste 32 Norte 0 -- -- 48